Walhalla, ND

7:13 AM CDT on April 21, 2015 (GMT -0500)
Grafton Municipal | | Change Station
CLOSE
Current Station
Airport
Location: Grafton,
Elevation: 823 ft
Nearby Weather Stations

Elev 823 ft 48.40 °N, 97.37 °W | Updated 18 minutes ago

Overcast
Overcast
32 °F
Feels Like 19 °F
N
24
Wind Variable Wind from NNW
Gusts 34 mph

Today
High -- | Low -- °F
--% Chance of Precip.
Yesterday
High -- | Low -- °F
Precip. -- in
6:29 AM 8:32 PM
Waxing Crescent, 10% visible
Pressure 29.72 in
Visibility 6.0 miles
Clouds Few 1800 ft
Mostly Cloudy 2500 ft
Overcast 2900 ft
Windchill 19 °F
Dew Point 28 °F
Humidity 87%
Rainfall 0.00 in
Snow Depth Not available.
UV 0 out of 12
Pollen 9.00 out of 12
Air Quality Not available.
Flu Activity Regional
METAR KGAF 211155Z AUTO 34021G30KT 6SM -SN FEW018 BKN025 OVC029 M00/M02 A2972 RMK AO2

More Conditions Fewer Conditions

Pressure 29.72 in
Visibility 6.0 miles
Clouds Few 1800 ft
Mostly Cloudy 2500 ft
Overcast 2900 ft
Windchill 19 °F
Dew Point 28 °F
Humidity 87%
Rainfall 0.00 in
Snow Depth Not available.
UV 0 out of 12
Pollen 9.00 out of 12
Air Quality Not available.
Flu Activity Regional
METAR KGAF 211155Z AUTO 34021G30KT 6SM -SN FEW018 BKN025 OVC029 M00/M02 A2972 RMK AO2

More Conditions Fewer Conditions

10-Day Weather Forecast

Almanac

Astronomy

Apr. 21, 2015 Rise Set
Actual Time
Civil Twilight
Nautical Twilight
Astronomical Twilight
Moon
Length of Visible Light
Length of Day
Tomorrow will be .
, % of the Moon is Illuminated

Today's Extremes

State Highs State Lows

Community

WunderPhotos

Upload Photos

1,815,351 photos uploaded!

WunderBlogs® & News

Nearby

Air Quality

  Air Quality AQ Index Pollutant
Not available.

Snow Depth

Station Depth Elevation

Earthquake Activity

City Distance Mag. Time & Date
Minimum magnitude displayed is 2.5.

Coastal Water Temperatures

Place Temperature

Stations

Nearby Weather Stations

Station Location Temp. Windchill Dew Point Humidity Wind Precip. Elev Updated Type